createdAt,value
2023-03-18T00:01:38.689Z,7.30
2023-03-18T00:04:15.409Z,7.00
2023-03-18T00:06:53.978Z,7.10
2023-03-18T00:09:37.709Z,7.60
2023-03-18T00:12:14.890Z,7.70
2023-03-18T00:14:52.432Z,7.20
2023-03-18T00:17:28.923Z,6.20
2023-03-18T00:20:07.008Z,7.60
2023-03-18T00:22:45.285Z,7.20
2023-03-18T00:25:24.283Z,7.00
2023-03-18T00:28:01.586Z,7.30
2023-03-18T00:30:38.376Z,6.80
2023-03-18T00:33:17.198Z,7.60
2023-03-18T00:35:55.203Z,6.90
2023-03-18T00:38:35.053Z,7.40
2023-03-18T00:41:18.248Z,6.60
2023-03-18T00:43:57.917Z,7.30
2023-03-18T00:46:38.787Z,6.50
2023-03-18T00:49:20.215Z,6.40
2023-03-18T00:51:58.254Z,6.50
2023-03-18T00:54:35.987Z,6.80
2023-03-18T00:57:12.720Z,6.50
2023-03-18T00:59:55.097Z,6.30
2023-03-18T01:02:35.032Z,6.30
2023-03-18T01:05:13.022Z,6.30
2023-03-18T01:07:51.911Z,7.10
2023-03-18T01:10:30.465Z,6.30
2023-03-18T01:13:05.436Z,6.40
2023-03-18T01:15:43.838Z,6.80
2023-03-18T01:18:20.958Z,6.10
2023-03-18T01:20:58.753Z,5.70
2023-03-18T01:23:33.636Z,6.00
2023-03-18T01:26:12.710Z,6.30
2023-03-18T01:28:50.102Z,6.20
2023-03-18T01:31:25.651Z,7.50
2023-03-18T01:34:00.586Z,5.40
2023-03-18T01:36:38.957Z,6.60
2023-03-18T01:39:15.294Z,6.20
2023-03-18T01:41:51.467Z,6.00
2023-03-18T01:44:29.677Z,7.00
2023-03-18T01:47:09.008Z,6.90
2023-03-18T01:49:47.591Z,6.70
2023-03-18T01:52:28.737Z,6.00
2023-03-18T01:55:06.921Z,5.70
2023-03-18T01:57:46.757Z,6.10
2023-03-18T02:00:33.738Z,6.00
2023-03-18T02:03:15.656Z,5.80
2023-03-18T02:05:51.310Z,6.30
2023-03-18T02:08:26.144Z,5.90
2023-03-18T02:11:02.506Z,6.00
2023-03-18T02:13:42.545Z,5.70
2023-03-18T02:16:26.183Z,7.10
2023-03-18T02:19:14.474Z,6.10
2023-03-18T02:21:56.828Z,6.00
2023-03-18T02:24:51.109Z,5.50
2023-03-18T02:27:29.316Z,5.60
2023-03-18T02:30:09.364Z,5.30
2023-03-18T02:32:46.950Z,5.70
2023-03-18T02:35:24.156Z,5.30
2023-03-18T02:38:04.985Z,6.00
2023-03-18T02:40:45.087Z,5.80
2023-03-18T02:43:28.534Z,5.00
2023-03-18T02:46:28.838Z,5.80
2023-03-18T02:49:08.004Z,5.60
2023-03-18T02:51:45.939Z,5.70
2023-03-18T02:54:25.640Z,5.00
2023-03-18T02:57:03.890Z,5.80
2023-03-18T02:59:41.958Z,5.90
2023-03-18T03:02:20.637Z,5.80
2023-03-18T03:04:58.875Z,5.60
2023-03-18T03:07:33.702Z,5.10
2023-03-18T03:10:12.938Z,5.70
2023-03-18T03:12:48.941Z,5.10
2023-03-18T03:15:27.880Z,5.50
2023-03-18T03:18:04.011Z,5.30
2023-03-18T03:20:42.321Z,5.60
2023-03-18T03:23:18.533Z,5.40
2023-03-18T03:25:58.417Z,5.00
2023-03-18T03:28:34.489Z,4.60
2023-03-18T03:31:13.062Z,5.30
2023-03-18T03:33:48.051Z,5.20
2023-03-18T03:36:25.362Z,4.80
2023-03-18T03:39:01.784Z,5.50
2023-03-18T03:41:38.750Z,5.40
2023-03-18T03:44:15.878Z,5.50
2023-03-18T03:46:52.125Z,5.20
2023-03-18T03:49:30.559Z,5.20
2023-03-18T03:52:08.505Z,5.20
2023-03-18T03:54:45.222Z,5.60
2023-03-18T03:57:23.741Z,4.70
2023-03-18T03:59:59.861Z,5.50
2023-03-18T04:02:38.495Z,5.10
2023-03-18T04:05:16.982Z,5.00
2023-03-18T04:07:56.765Z,4.70
2023-03-18T04:10:34.968Z,4.60
2023-03-18T04:13:15.426Z,4.70
2023-03-18T04:15:55.360Z,4.60
2023-03-18T04:18:30.539Z,5.30
2023-03-18T04:21:09.365Z,5.10
2023-03-18T04:23:47.785Z,5.40
2023-03-18T04:26:25.264Z,4.90
2023-03-18T04:29:04.812Z,5.10
2023-03-18T04:31:45.265Z,5.20
2023-03-18T04:34:26.804Z,4.60
2023-03-18T04:37:05.886Z,4.70
2023-03-18T04:39:46.589Z,5.20
2023-03-18T04:42:23.748Z,5.00
2023-03-18T04:45:02.408Z,4.40
2023-03-18T04:47:42.863Z,5.00
2023-03-18T04:50:22.636Z,4.40
2023-03-18T04:52:59.678Z,4.80
2023-03-18T04:55:38.809Z,4.60
2023-03-18T04:58:14.317Z,4.70
2023-03-18T05:00:54.129Z,4.70
2023-03-18T05:03:34.481Z,4.80
2023-03-18T05:06:22.815Z,4.90
2023-03-18T05:08:59.159Z,4.50
2023-03-18T05:11:35.509Z,4.90
2023-03-18T05:14:14.251Z,4.50
2023-03-18T05:16:50.314Z,4.60
2023-03-18T05:19:28.369Z,5.20
2023-03-18T05:22:05.700Z,5.00
2023-03-18T05:24:43.904Z,4.50
2023-03-18T05:27:25.770Z,4.30
2023-03-18T05:30:03.036Z,4.30
2023-03-18T05:32:41.788Z,4.40
2023-03-18T05:35:19.806Z,4.70
2023-03-18T05:38:00.517Z,4.40
2023-03-18T05:40:36.667Z,4.90
2023-03-18T05:43:17.001Z,4.40
2023-03-18T05:45:53.377Z,4.50
2023-03-18T05:48:29.679Z,4.20
2023-03-18T05:51:06.990Z,4.30
2023-03-18T05:53:46.234Z,4.60
2023-03-18T05:56:22.617Z,4.50
2023-03-18T05:59:01.223Z,4.60
2023-03-18T06:01:40.415Z,4.10
2023-03-18T06:04:19.579Z,4.30
2023-03-18T06:06:55.288Z,4.30
2023-03-18T06:09:35.646Z,4.10
2023-03-18T06:12:12.113Z,3.90
2023-03-18T06:14:52.362Z,4.40
2023-03-18T06:17:30.197Z,4.20
2023-03-18T06:20:09.191Z,4.00
2023-03-18T06:22:50.724Z,4.20
2023-03-18T06:25:26.934Z,4.60
2023-03-18T06:28:04.742Z,4.00
2023-03-18T06:30:41.895Z,4.40
2023-03-18T06:33:18.358Z,4.20
2023-03-18T06:35:54.794Z,4.70
2023-03-18T06:38:31.737Z,4.80
2023-03-18T06:41:10.428Z,5.00
2023-03-18T06:43:47.805Z,4.60
2023-03-18T06:46:23.888Z,4.40
2023-03-18T06:48:58.549Z,4.30
2023-03-18T06:51:34.597Z,4.80
2023-03-18T06:54:10.766Z,4.30
2023-03-18T06:56:46.812Z,4.90
2023-03-18T06:59:23.211Z,4.00
2023-03-18T07:01:59.313Z,4.30
2023-03-18T07:04:35.839Z,4.10
2023-03-18T07:07:11.919Z,4.00
2023-03-18T07:09:47.573Z,4.40
2023-03-18T07:12:22.406Z,4.80
2023-03-18T07:14:58.288Z,4.80
2023-03-18T07:17:33.976Z,4.00
2023-03-18T07:20:19.499Z,3.90
2023-03-18T07:22:53.963Z,3.90
2023-03-18T07:25:31.737Z,4.10
2023-03-18T07:28:06.716Z,4.40
2023-03-18T07:30:43.117Z,3.80
2023-03-18T07:33:20.988Z,4.10
2023-03-18T07:35:56.953Z,4.40
2023-03-18T07:38:31.716Z,4.90
2023-03-18T07:41:08.659Z,3.80
2023-03-18T07:43:43.680Z,4.30
2023-03-18T07:46:19.499Z,4.90
2023-03-18T07:48:56.237Z,4.60
2023-03-18T07:51:33.102Z,5.10
2023-03-18T07:54:08.563Z,4.10
2023-03-18T07:56:43.148Z,4.70
2023-03-18T07:59:21.105Z,4.00
2023-03-18T08:01:57.486Z,4.80
2023-03-18T08:04:32.091Z,4.60
2023-03-18T08:07:08.564Z,4.30
2023-03-18T08:09:50.658Z,4.40
2023-03-18T08:12:38.412Z,4.80
2023-03-18T08:15:22.026Z,4.40
2023-03-18T08:17:58.766Z,4.30
2023-03-18T08:20:34.285Z,4.00
2023-03-18T08:23:11.639Z,4.30
2023-03-18T08:25:53.516Z,4.30
2023-03-18T08:28:27.970Z,4.60
2023-03-18T08:31:05.551Z,4.90
2023-03-18T08:33:41.450Z,5.80
2023-03-18T08:36:16.901Z,4.40
2023-03-18T08:38:53.957Z,4.60
2023-03-18T08:41:28.637Z,4.80
2023-03-18T08:44:07.935Z,4.70
2023-03-18T08:46:43.066Z,5.90
2023-03-18T08:49:19.716Z,4.90
2023-03-18T08:51:55.162Z,4.70
2023-03-18T08:54:29.900Z,5.30
2023-03-18T08:57:05.493Z,4.70
2023-03-18T08:59:45.825Z,6.60
2023-03-18T09:02:23.626Z,4.60
2023-03-18T09:05:00.285Z,4.90
2023-03-18T09:07:36.433Z,4.80
2023-03-18T09:10:21.246Z,4.30
2023-03-18T09:12:58.745Z,4.40
2023-03-18T09:15:33.584Z,5.30
2023-03-18T09:18:12.711Z,4.90
2023-03-18T09:20:55.626Z,5.20
2023-03-18T09:23:30.363Z,5.80
2023-03-18T09:26:11.430Z,5.20
2023-03-18T09:28:47.132Z,4.50
2023-03-18T09:31:24.827Z,4.90
2023-03-18T09:34:06.720Z,4.40
2023-03-18T09:36:49.206Z,11.20
2023-03-18T09:39:26.081Z,4.50
2023-03-18T09:42:20.341Z,4.90
2023-03-18T09:45:01.257Z,5.90
2023-03-18T09:48:03.380Z,5.60
2023-03-18T09:50:49.277Z,5.20
2023-03-18T09:53:31.727Z,5.30
2023-03-18T09:56:08.550Z,4.60
2023-03-18T09:58:53.759Z,4.60
2023-03-18T10:01:31.062Z,4.30
2023-03-18T10:04:12.072Z,4.60
2023-03-18T10:06:51.177Z,4.60
2023-03-18T10:09:31.909Z,4.70
2023-03-18T10:12:18.031Z,5.40
2023-03-18T10:15:04.788Z,4.60
2023-03-18T10:17:47.049Z,4.80
2023-03-18T10:20:31.679Z,4.50
2023-03-18T10:23:28.664Z,4.70
2023-03-18T10:26:13.704Z,6.20
2023-03-18T10:29:06.284Z,6.00
2023-03-18T10:32:07.189Z,5.40
2023-03-18T10:34:57.006Z,5.00
2023-03-18T10:37:50.123Z,5.40
2023-03-18T10:40:27.050Z,6.10
2023-03-18T10:43:02.071Z,5.90
2023-03-18T10:45:40.142Z,6.20
2023-03-18T10:48:25.159Z,5.70
2023-03-18T10:51:17.628Z,5.80
2023-03-18T10:54:00.241Z,5.40
2023-03-18T10:56:35.193Z,6.20
2023-03-18T10:59:19.278Z,4.40
2023-03-18T11:02:00.887Z,5.60
2023-03-18T11:04:46.959Z,5.70
2023-03-18T11:07:26.680Z,5.70
2023-03-18T11:10:23.690Z,5.40
2023-03-18T11:13:06.686Z,6.00
2023-03-18T11:15:48.505Z,5.20
2023-03-18T11:18:27.983Z,5.30
2023-03-18T11:21:06.421Z,5.80
2023-03-18T11:23:49.049Z,5.20
2023-03-18T11:26:31.250Z,5.60
2023-03-18T11:29:15.255Z,4.90
2023-03-18T11:31:58.346Z,5.90
2023-03-18T11:34:35.490Z,4.80
2023-03-18T11:37:14.254Z,5.00
2023-03-18T11:39:54.601Z,5.10
2023-03-18T11:42:38.400Z,6.20
2023-03-18T11:45:33.184Z,15.40
2023-03-18T11:48:16.181Z,16.10
2023-03-18T11:51:19.274Z,15.10
2023-03-18T11:54:23.069Z,11.40
2023-03-18T11:57:03.265Z,12.10
2023-03-18T11:59:52.877Z,10.50
2023-03-18T12:02:58.002Z,12.00
2023-03-18T12:06:00.303Z,11.70
2023-03-18T12:08:52.250Z,13.80
2023-03-18T12:11:43.175Z,11.30
2023-03-18T12:14:29.120Z,11.40
2023-03-18T12:17:26.955Z,9.80
2023-03-18T12:20:16.769Z,10.20
2023-03-18T12:23:14.649Z,9.30
2023-03-18T12:26:06.843Z,9.70
2023-03-18T12:29:19.936Z,9.10
2023-03-18T12:32:11.165Z,7.40
2023-03-18T12:35:06.609Z,8.30
2023-03-18T12:37:52.974Z,8.30
2023-03-18T12:40:43.139Z,7.30
2023-03-18T12:43:47.545Z,8.20
2023-03-18T12:46:30.680Z,8.20
2023-03-18T12:49:16.100Z,7.70
2023-03-18T12:51:59.390Z,7.40
2023-03-18T12:54:39.784Z,7.20
2023-03-18T12:57:34.228Z,6.90
2023-03-18T13:00:20.046Z,7.00
2023-03-18T13:03:06.871Z,6.90
2023-03-18T13:05:48.061Z,6.70
2023-03-18T13:08:45.646Z,6.10
2023-03-18T13:11:46.491Z,7.20
2023-03-18T13:14:29.887Z,6.40
2023-03-18T13:17:06.683Z,7.00
2023-03-18T13:19:43.186Z,5.90
2023-03-18T13:22:46.954Z,6.00
2023-03-18T13:25:33.654Z,6.80
2023-03-18T13:28:39.949Z,6.80
2023-03-18T13:31:28.660Z,7.80
2023-03-18T13:34:32.691Z,6.80
2023-03-18T13:37:33.875Z,6.50
2023-03-18T13:40:39.678Z,6.80
2023-03-18T13:43:20.470Z,7.20
2023-03-18T13:45:56.717Z,6.00
2023-03-18T13:48:35.103Z,5.50
2023-03-18T13:51:45.987Z,6.00
2023-03-18T13:54:22.382Z,6.10
2023-03-18T13:56:57.766Z,5.60
2023-03-18T13:59:48.642Z,6.20
2023-03-18T14:02:43.538Z,5.50
2023-03-18T14:05:41.767Z,5.80
2023-03-18T14:08:48.733Z,6.30
2023-03-18T14:11:51.171Z,7.20
2023-03-18T14:15:09.394Z,6.10
2023-03-18T14:17:50.423Z,5.60
2023-03-18T14:20:41.950Z,6.00
2023-03-18T14:23:35.735Z,5.90
2023-03-18T14:26:20.762Z,6.30
2023-03-18T14:29:04.119Z,5.60
2023-03-18T14:31:59.171Z,6.20
2023-03-18T14:34:37.636Z,6.20
2023-03-18T14:37:27.648Z,5.50
2023-03-18T14:40:14.098Z,5.60
2023-03-18T14:42:56.771Z,6.00
2023-03-18T14:45:37.779Z,6.00
2023-03-18T14:48:21.673Z,6.20
2023-03-18T14:51:00.173Z,6.10
2023-03-18T14:53:39.599Z,6.00
2023-03-18T14:56:23.221Z,5.40
2023-03-18T14:59:04.092Z,5.50
2023-03-18T15:01:51.458Z,5.50
2023-03-18T15:04:29.109Z,5.60
2023-03-18T15:07:09.752Z,5.90
2023-03-18T15:09:47.081Z,5.70
2023-03-18T15:12:30.987Z,5.80
2023-03-18T15:15:06.401Z,6.40
2023-03-18T15:17:42.982Z,5.70
2023-03-18T15:20:23.756Z,6.10
2023-03-18T15:22:58.574Z,5.30
2023-03-18T15:25:36.467Z,6.40
2023-03-18T15:28:21.312Z,6.00
2023-03-18T15:30:58.863Z,5.30
2023-03-18T15:33:39.858Z,5.40
2023-03-18T15:36:19.700Z,5.80
2023-03-18T15:38:58.817Z,5.30
2023-03-18T15:41:34.864Z,5.10
2023-03-18T15:44:20.765Z,5.60
2023-03-18T15:46:56.363Z,6.70
2023-03-18T15:49:35.383Z,5.70
2023-03-18T15:52:18.611Z,5.60
2023-03-18T15:54:53.663Z,5.00
2023-03-18T15:57:39.613Z,5.70
2023-03-18T16:00:25.920Z,5.50
2023-03-18T16:03:02.644Z,5.80
2023-03-18T16:05:42.148Z,6.00
2023-03-18T16:08:21.612Z,5.40
2023-03-18T16:11:01.913Z,6.60
2023-03-18T16:13:42.202Z,5.60
2023-03-18T16:16:29.506Z,7.90
2023-03-18T16:19:07.985Z,6.00
2023-03-18T16:21:43.694Z,5.90
2023-03-18T16:24:20.688Z,5.70
2023-03-18T16:26:57.788Z,5.50
2023-03-18T16:29:38.381Z,6.30
2023-03-18T16:32:23.020Z,7.00
2023-03-18T16:37:32.341Z,6.00
2023-03-18T16:40:17.350Z,5.70
2023-03-18T16:42:57.882Z,5.00
2023-03-18T16:45:35.227Z,5.40
2023-03-18T16:48:16.343Z,5.60
2023-03-18T16:50:57.149Z,5.70
2023-03-18T16:53:34.366Z,5.60
2023-03-18T16:56:21.393Z,5.70
2023-03-18T16:58:56.118Z,5.60
2023-03-18T17:01:32.310Z,5.70
2023-03-18T17:04:22.145Z,5.70
2023-03-18T17:06:57.491Z,6.40
2023-03-18T17:09:36.786Z,5.80
2023-03-18T17:12:15.134Z,5.50
2023-03-18T17:14:55.150Z,6.20
2023-03-18T17:17:36.277Z,5.90
2023-03-18T17:20:22.102Z,5.90
2023-03-18T17:22:58.418Z,5.60
2023-03-18T17:25:34.872Z,5.90
2023-03-18T17:28:12.486Z,5.80
2023-03-18T17:30:48.182Z,6.30
2023-03-18T17:33:31.405Z,6.20
2023-03-18T17:36:08.108Z,6.20
2023-03-18T17:38:42.965Z,6.50
2023-03-18T17:41:22.918Z,5.70
2023-03-18T17:43:57.815Z,5.70
2023-03-18T17:46:33.924Z,5.90
2023-03-18T17:49:14.413Z,5.80
2023-03-18T17:51:49.626Z,5.90
2023-03-18T17:54:28.135Z,6.00
2023-03-18T17:57:03.413Z,6.00
2023-03-18T17:59:41.496Z,5.80
2023-03-18T18:02:20.413Z,6.00
2023-03-18T18:04:56.441Z,5.80
2023-03-18T18:07:31.075Z,6.10
2023-03-18T18:10:08.026Z,5.90
2023-03-18T18:12:47.842Z,6.50
2023-03-18T18:15:27.643Z,6.00
2023-03-18T18:18:02.730Z,5.80
2023-03-18T18:20:39.804Z,6.10
2023-03-18T18:23:25.353Z,6.00
2023-03-18T18:26:05.996Z,5.90
2023-03-18T18:28:43.805Z,6.30
2023-03-18T18:31:23.807Z,6.40
2023-03-18T18:33:58.558Z,5.80
2023-03-18T18:36:36.338Z,5.60
2023-03-18T18:39:11.423Z,6.10
2023-03-18T18:41:47.755Z,6.50
2023-03-18T18:44:23.535Z,6.20
2023-03-18T18:46:59.021Z,6.10
2023-03-18T18:49:35.045Z,6.20
2023-03-18T18:52:16.070Z,6.80
2023-03-18T18:54:50.794Z,6.00
2023-03-18T18:57:30.998Z,5.70
2023-03-18T19:00:11.512Z,6.10
2023-03-18T19:02:47.726Z,6.20
2023-03-18T19:05:23.372Z,6.00
2023-03-18T19:07:59.080Z,6.20
2023-03-18T19:10:34.731Z,5.90
2023-03-18T19:13:17.133Z,6.10
2023-03-18T19:15:55.752Z,5.70
2023-03-18T19:18:39.030Z,6.70
2023-03-18T19:21:15.390Z,6.40
2023-03-18T19:23:50.628Z,5.80
2023-03-18T19:26:27.286Z,6.40
2023-03-18T19:29:05.769Z,5.60
2023-03-18T19:31:41.328Z,6.70
2023-03-18T19:34:21.368Z,6.20
2023-03-18T19:36:58.907Z,6.50
2023-03-18T19:39:34.066Z,6.20
2023-03-18T19:42:14.097Z,6.50
2023-03-18T19:44:55.729Z,6.20
2023-03-18T19:47:32.214Z,6.60
2023-03-18T19:50:21.428Z,7.10
2023-03-18T19:53:00.563Z,6.40
2023-03-18T19:55:39.200Z,7.50
2023-03-18T19:58:26.182Z,7.00
2023-03-18T20:01:06.552Z,6.90
2023-03-18T20:03:43.972Z,6.80
2023-03-18T20:06:22.331Z,7.30
2023-03-18T20:08:58.144Z,6.90
2023-03-18T20:11:36.387Z,6.90
2023-03-18T20:14:26.010Z,7.20
2023-03-18T20:17:05.935Z,6.90
2023-03-18T20:19:45.611Z,6.80
2023-03-18T20:22:27.183Z,7.80
2023-03-18T20:25:06.872Z,6.90
2023-03-18T20:27:43.889Z,7.40
2023-03-18T20:30:27.950Z,7.30
2023-03-18T20:33:06.272Z,7.20
2023-03-18T20:35:44.296Z,6.90
2023-03-18T20:38:26.858Z,7.70
2023-03-18T20:41:04.916Z,6.90
2023-03-18T20:43:42.740Z,6.80
2023-03-18T20:46:25.306Z,7.50
2023-03-18T20:49:05.729Z,7.50
2023-03-18T20:51:46.330Z,6.90
2023-03-18T20:54:27.342Z,6.70
2023-03-18T20:57:05.497Z,8.10
2023-03-18T20:59:42.151Z,7.50
2023-03-18T21:02:37.251Z,7.30
2023-03-18T21:05:18.836Z,6.80
2023-03-18T21:07:57.047Z,7.50
2023-03-18T21:10:33.793Z,7.10
2023-03-18T21:13:22.009Z,7.20
2023-03-18T21:15:58.427Z,7.80
2023-03-18T21:18:38.115Z,7.80
2023-03-18T21:21:29.957Z,7.70
2023-03-18T21:24:21.756Z,7.20
2023-03-18T21:27:05.401Z,8.00
2023-03-18T21:29:40.883Z,7.70
2023-03-18T21:32:26.003Z,8.00
2023-03-18T21:35:05.122Z,8.20
2023-03-18T21:37:42.473Z,8.20
2023-03-18T21:40:23.128Z,7.40
2023-03-18T21:42:59.137Z,7.70
2023-03-18T21:45:34.918Z,7.50
2023-03-18T21:48:13.100Z,7.70
2023-03-18T21:50:49.313Z,8.00
2023-03-18T21:53:28.470Z,8.10
2023-03-18T21:56:04.814Z,7.40
2023-03-18T21:58:39.659Z,7.90
2023-03-18T22:01:22.006Z,7.20
2023-03-18T22:03:58.158Z,7.80
2023-03-18T22:06:34.582Z,7.80
2023-03-18T22:09:10.379Z,7.30
2023-03-18T22:11:47.465Z,7.60
2023-03-18T22:14:24.180Z,7.60
2023-03-18T22:17:00.131Z,7.50
2023-03-18T22:19:37.042Z,7.70
2023-03-18T22:22:19.171Z,7.70
2023-03-18T22:24:54.170Z,7.60
2023-03-18T22:27:31.354Z,7.50
2023-03-18T22:30:12.613Z,8.90
2023-03-18T22:32:51.733Z,8.20
2023-03-18T22:35:29.247Z,7.50
2023-03-18T22:38:07.560Z,8.20
2023-03-18T22:40:45.244Z,7.30
2023-03-18T22:43:35.030Z,7.40
2023-03-18T22:46:12.922Z,8.00
2023-03-18T22:48:47.783Z,8.60
2023-03-18T22:51:27.500Z,8.10
2023-03-18T22:54:04.367Z,8.50
2023-03-18T22:56:38.728Z,7.80
2023-03-18T22:59:16.209Z,7.90
2023-03-18T23:01:54.208Z,8.40
2023-03-18T23:04:33.088Z,8.80
2023-03-18T23:07:14.257Z,8.20
2023-03-18T23:09:56.988Z,8.70
2023-03-18T23:12:35.166Z,8.70
2023-03-18T23:15:16.137Z,7.70
2023-03-18T23:17:52.665Z,9.10
2023-03-18T23:20:33.279Z,8.90
2023-03-18T23:23:10.919Z,8.20
2023-03-18T23:25:51.370Z,7.80
2023-03-18T23:28:29.135Z,9.40
2023-03-18T23:31:03.749Z,9.50
2023-03-18T23:33:43.091Z,8.60
2023-03-18T23:36:19.583Z,10.00
2023-03-18T23:38:55.600Z,9.30
2023-03-18T23:41:31.770Z,8.80
2023-03-18T23:44:10.581Z,9.20
2023-03-18T23:46:50.326Z,8.40
2023-03-18T23:49:33.560Z,8.80
2023-03-18T23:52:11.917Z,9.70
2023-03-18T23:54:46.856Z,11.00
2023-03-18T23:57:26.018Z,10.00
